sensor_id;sensor_type;location;lat;lon;timestamp;pressure;altitude;pressure_sealevel;temperature;humidity
51926;BME280;37952;51.938;15.480;2023-05-20T00:00:00;100784.55;;;12.18;65.75
51926;BME280;37952;51.938;15.480;2023-05-20T00:03:03;100784.65;;;12.16;65.93
51926;BME280;37952;51.938;15.480;2023-05-20T00:06:06;100763.81;;;12.01;66.16
51926;BME280;37952;51.938;15.480;2023-05-20T00:09:09;100775.92;;;12.13;66.31
51926;BME280;37952;51.938;15.480;2023-05-20T00:12:12;100778.72;;;12.14;66.47
51926;BME280;37952;51.938;15.480;2023-05-20T00:15:15;100777.20;;;12.16;66.13
51926;BME280;37952;51.938;15.480;2023-05-20T00:18:18;100775.95;;;12.13;66.00
51926;BME280;37952;51.938;15.480;2023-05-20T00:21:21;100777.27;;;12.12;66.05
51926;BME280;37952;51.938;15.480;2023-05-20T00:24:24;100777.91;;;12.09;66.15
51926;BME280;37952;51.938;15.480;2023-05-20T00:27:26;100778.02;;;12.07;66.37
51926;BME280;37952;51.938;15.480;2023-05-20T00:30:29;100773.55;;;12.08;66.86
51926;BME280;37952;51.938;15.480;2023-05-20T00:33:32;100773.67;;;12.09;66.61
51926;BME280;37952;51.938;15.480;2023-05-20T00:36:35;100771.52;;;12.10;66.39
51926;BME280;37952;51.938;15.480;2023-05-20T00:39:40;100771.16;;;12.10;66.48
51926;BME280;37952;51.938;15.480;2023-05-20T00:42:43;100767.86;;;12.09;66.40
51926;BME280;37952;51.938;15.480;2023-05-20T00:45:46;100769.46;;;12.08;66.43
51926;BME280;37952;51.938;15.480;2023-05-20T00:48:49;100765.77;;;12.04;66.78
51926;BME280;37952;51.938;15.480;2023-05-20T00:51:52;100762.80;;;12.03;66.84
51926;BME280;37952;51.938;15.480;2023-05-20T00:54:55;100759.73;;;12.01;66.95
51926;BME280;37952;51.938;15.480;2023-05-20T00:57:59;100766.02;;;12.02;66.95
51926;BME280;37952;51.938;15.480;2023-05-20T01:01:03;100763.81;;;12.01;66.97
51926;BME280;37952;51.938;15.480;2023-05-20T01:04:06;100763.46;;;11.97;67.20
51926;BME280;37952;51.938;15.480;2023-05-20T01:07:08;100765.02;;;11.95;67.32
51926;BME280;37952;51.938;15.480;2023-05-20T01:10:11;100765.42;;;11.97;67.48
51926;BME280;37952;51.938;15.480;2023-05-20T01:13:19;100766.26;;;11.98;67.40
51926;BME280;37952;51.938;15.480;2023-05-20T01:16:23;100770.59;;;12.00;67.35
51926;BME280;37952;51.938;15.480;2023-05-20T01:19:35;100773.43;;;11.99;67.46
51926;BME280;37952;51.938;15.480;2023-05-20T01:22:51;100775.43;;;11.98;67.58
51926;BME280;37952;51.938;15.480;2023-05-20T01:25:54;100774.52;;;11.95;67.55
51926;BME280;37952;51.938;15.480;2023-05-20T01:28:57;100771.30;;;11.96;67.63
51926;BME280;37952;51.938;15.480;2023-05-20T01:32:18;100766.55;;;11.96;67.64
51926;BME280;37952;51.938;15.480;2023-05-20T01:35:22;100761.95;;;11.96;67.69
51926;BME280;37952;51.938;15.480;2023-05-20T01:38:25;100763.30;;;11.93;67.89
51926;BME280;37952;51.938;15.480;2023-05-20T01:41:29;100757.66;;;11.90;67.93
51926;BME280;37952;51.938;15.480;2023-05-20T01:44:32;100760.77;;;11.87;67.82
51926;BME280;37952;51.938;15.480;2023-05-20T01:47:35;100753.91;;;11.87;68.30
51926;BME280;37952;51.938;15.480;2023-05-20T01:50:38;100753.80;;;11.89;68.16
51926;BME280;37952;51.938;15.480;2023-05-20T01:53:40;100755.66;;;11.90;68.15
51926;BME280;37952;51.938;15.480;2023-05-20T01:56:45;100754.08;;;11.91;68.01
51926;BME280;37952;51.938;15.480;2023-05-20T01:59:48;100749.98;;;11.87;68.08
51926;BME280;37952;51.938;15.480;2023-05-20T02:02:51;100749.38;;;11.89;68.35
51926;BME280;37952;51.938;15.480;2023-05-20T02:05:54;100750.13;;;11.88;68.43
51926;BME280;37952;51.938;15.480;2023-05-20T02:08:57;100754.76;;;11.88;68.34
51926;BME280;37952;51.938;15.480;2023-05-20T02:11:59;100757.27;;;11.86;68.26
51926;BME280;37952;51.938;15.480;2023-05-20T02:15:02;100752.34;;;11.86;68.68
51926;BME280;37952;51.938;15.480;2023-05-20T02:18:05;100754.88;;;11.89;68.87
51926;BME280;37952;51.938;15.480;2023-05-20T02:21:10;100753.70;;;11.91;68.68
51926;BME280;37952;51.938;15.480;2023-05-20T02:24:13;100749.89;;;11.93;68.48
51926;BME280;37952;51.938;15.480;2023-05-20T02:27:16;100754.62;;;11.94;68.62
51926;BME280;37952;51.938;15.480;2023-05-20T02:30:18;100759.09;;;11.93;68.49
51926;BME280;37952;51.938;15.480;2023-05-20T02:33:21;100760.15;;;11.93;68.62
51926;BME280;37952;51.938;15.480;2023-05-20T02:36:24;100757.48;;;11.93;68.78
51926;BME280;37952;51.938;15.480;2023-05-20T02:39:27;100754.27;;;11.94;68.69
51926;BME280;37952;51.938;15.480;2023-05-20T02:42:30;100758.69;;;11.94;68.67
51926;BME280;37952;51.938;15.480;2023-05-20T02:45:32;100762.30;;;11.92;68.63
51926;BME280;37952;51.938;15.480;2023-05-20T02:48:35;100764.46;;;11.88;68.59
51926;BME280;37952;51.938;15.480;2023-05-20T02:51:39;100768.23;;;11.86;68.87
51926;BME280;37952;51.938;15.480;2023-05-20T02:54:41;100767.48;;;11.87;69.18
51926;BME280;37952;51.938;15.480;2023-05-20T02:57:44;100767.75;;;11.89;69.29
51926;BME280;37952;51.938;15.480;2023-05-20T03:00:47;100769.85;;;11.89;69.00
51926;BME280;37952;51.938;15.480;2023-05-20T03:03:49;100765.37;;;11.87;69.01
51926;BME280;37952;51.938;15.480;2023-05-20T03:06:52;100770.80;;;11.85;69.24
51926;BME280;37952;51.938;15.480;2023-05-20T03:09:55;100769.91;;;11.85;69.26
51926;BME280;37952;51.938;15.480;2023-05-20T03:13:00;100769.39;;;11.85;69.25
51926;BME280;37952;51.938;15.480;2023-05-20T03:16:03;100768.05;;;11.83;69.30
51926;BME280;37952;51.938;15.480;2023-05-20T03:19:06;100764.96;;;11.81;69.24
51926;BME280;37952;51.938;15.480;2023-05-20T03:22:09;100763.39;;;11.81;69.41
51926;BME280;37952;51.938;15.480;2023-05-20T03:25:12;100765.41;;;11.83;69.45
51926;BME280;37952;51.938;15.480;2023-05-20T03:28:15;100764.60;;;11.85;69.50
51926;BME280;37952;51.938;15.480;2023-05-20T03:31:17;100764.59;;;11.85;69.32
51926;BME280;37952;51.938;15.480;2023-05-20T03:34:21;100766.23;;;11.84;69.51
51926;BME280;37952;51.938;15.480;2023-05-20T03:37:23;100768.77;;;11.83;69.75
51926;BME280;37952;51.938;15.480;2023-05-20T03:40:26;100767.52;;;11.83;69.84
51926;BME280;37952;51.938;15.480;2023-05-20T03:43:29;100773.40;;;11.89;69.84
51926;BME280;37952;51.938;15.480;2023-05-20T03:46:32;100779.48;;;11.91;69.73
51926;BME280;37952;51.938;15.480;2023-05-20T03:49:36;100778.73;;;11.92;69.64
51926;BME280;37952;51.938;15.480;2023-05-20T03:52:38;100779.59;;;11.92;69.87
51926;BME280;37952;51.938;15.480;2023-05-20T03:55:42;100781.48;;;11.94;70.07
51926;BME280;37952;51.938;15.480;2023-05-20T03:58:45;100783.65;;;11.96;70.02
51926;BME280;37952;51.938;15.480;2023-05-20T04:01:47;100782.83;;;11.95;70.19
51926;BME280;37952;51.938;15.480;2023-05-20T04:04:50;100785.58;;;11.93;70.09
51926;BME280;37952;51.938;15.480;2023-05-20T04:07:54;100787.80;;;11.91;70.14
51926;BME280;37952;51.938;15.480;2023-05-20T04:10:58;100791.13;;;11.91;70.35
51926;BME280;37952;51.938;15.480;2023-05-20T04:14:01;100792.94;;;11.95;70.47
51926;BME280;37952;51.938;15.480;2023-05-20T04:17:05;100786.84;;;11.96;70.23
51926;BME280;37952;51.938;15.480;2023-05-20T04:20:08;100784.29;;;11.98;70.14
51926;BME280;37952;51.938;15.480;2023-05-20T04:23:12;100782.85;;;11.98;70.66
51926;BME280;37952;51.938;15.480;2023-05-20T04:26:15;100778.88;;;12.00;70.57
51926;BME280;37952;51.938;15.480;2023-05-20T04:29:18;100775.61;;;12.02;70.31
51926;BME280;37952;51.938;15.480;2023-05-20T04:32:21;100776.69;;;12.01;70.35
51926;BME280;37952;51.938;15.480;2023-05-20T04:35:23;100773.30;;;12.02;70.35
51926;BME280;37952;51.938;15.480;2023-05-20T04:38:27;100776.53;;;12.01;70.58
51926;BME280;37952;51.938;15.480;2023-05-20T04:41:31;100773.59;;;12.03;70.84
51926;BME280;37952;51.938;15.480;2023-05-20T04:44:34;100778.39;;;12.06;70.78
51926;BME280;37952;51.938;15.480;2023-05-20T04:47:37;100781.52;;;12.07;70.70
51926;BME280;37952;51.938;15.480;2023-05-20T04:50:40;100772.81;;;12.09;70.65
51926;BME280;37952;51.938;15.480;2023-05-20T04:53:43;100775.92;;;12.10;70.80
51926;BME280;37952;51.938;15.480;2023-05-20T04:56:47;100778.16;;;12.11;71.04
51926;BME280;37952;51.938;15.480;2023-05-20T04:59:50;100781.23;;;12.14;70.85
51926;BME280;37952;51.938;15.480;2023-05-20T05:02:54;100779.16;;;12.20;70.74
51926;BME280;37952;51.938;15.480;2023-05-20T05:05:57;100775.73;;;12.21;70.82
51926;BME280;37952;51.938;15.480;2023-05-20T05:09:00;100782.03;;;12.26;70.90
51926;BME280;37952;51.938;15.480;2023-05-20T05:12:03;100784.50;;;12.29;71.23
51926;BME280;37952;51.938;15.480;2023-05-20T05:15:07;100779.80;;;12.32;70.97
51926;BME280;37952;51.938;15.480;2023-05-20T05:18:10;100785.42;;;12.32;71.11
51926;BME280;37952;51.938;15.480;2023-05-20T05:21:13;100784.29;;;12.33;71.02
51926;BME280;37952;51.938;15.480;2023-05-20T05:24:15;100783.04;;;12.38;71.23
51926;BME280;37952;51.938;15.480;2023-05-20T05:27:18;100786.34;;;12.46;71.42
51926;BME280;37952;51.938;15.480;2023-05-20T05:30:21;100785.84;;;12.52;71.25
51926;BME280;37952;51.938;15.480;2023-05-20T05:33:23;100785.14;;;12.55;70.95
51926;BME280;37952;51.938;15.480;2023-05-20T05:36:26;100785.98;;;12.59;70.92
51926;BME280;37952;51.938;15.480;2023-05-20T05:39:29;100784.90;;;12.63;71.14
51926;BME280;37952;51.938;15.480;2023-05-20T05:42:32;100785.08;;;12.66;71.25
51926;BME280;37952;51.938;15.480;2023-05-20T05:45:34;100791.67;;;12.72;71.30
51926;BME280;37952;51.938;15.480;2023-05-20T05:48:37;100792.52;;;12.70;71.11
51926;BME280;37952;51.938;15.480;2023-05-20T05:51:40;100788.39;;;12.67;71.14
51926;BME280;37952;51.938;15.480;2023-05-20T05:54:42;100789.15;;;12.69;71.20
51926;BME280;37952;51.938;15.480;2023-05-20T05:57:45;100791.52;;;12.72;71.16
51926;BME280;37952;51.938;15.480;2023-05-20T06:00:50;100792.60;;;12.75;71.21
51926;BME280;37952;51.938;15.480;2023-05-20T06:03:54;100788.91;;;12.74;71.19
51926;BME280;37952;51.938;15.480;2023-05-20T06:06:57;100787.85;;;12.74;71.06
51926;BME280;37952;51.938;15.480;2023-05-20T06:10:00;100785.52;;;12.78;71.24
51926;BME280;37952;51.938;15.480;2023-05-20T06:13:03;100782.98;;;12.86;71.40
51926;BME280;37952;51.938;15.480;2023-05-20T06:16:06;100780.96;;;12.90;71.22
51926;BME280;37952;51.938;15.480;2023-05-20T06:19:09;100775.47;;;12.94;71.26
51926;BME280;37952;51.938;15.480;2023-05-20T06:22:12;100776.79;;;12.96;71.27
51926;BME280;37952;51.938;15.480;2023-05-20T06:25:14;100775.34;;;13.00;71.21
51926;BME280;37952;51.938;15.480;2023-05-20T06:28:17;100772.42;;;13.05;71.30
51926;BME280;37952;51.938;15.480;2023-05-20T06:31:20;100772.05;;;13.15;71.27
51926;BME280;37952;51.938;15.480;2023-05-20T06:34:23;100774.00;;;13.24;71.14
51926;BME280;37952;51.938;15.480;2023-05-20T06:37:26;100776.23;;;13.29;70.90
51926;BME280;37952;51.938;15.480;2023-05-20T06:40:29;100776.80;;;13.28;70.87
51926;BME280;37952;51.938;15.480;2023-05-20T06:43:32;100777.41;;;13.27;71.14
51926;BME280;37952;51.938;15.480;2023-05-20T06:46:35;100781.36;;;13.32;70.90
51926;BME280;37952;51.938;15.480;2023-05-20T06:49:38;100777.45;;;13.36;70.70
51926;BME280;37952;51.938;15.480;2023-05-20T06:52:40;100775.60;;;13.34;70.79
51926;BME280;37952;51.938;15.480;2023-05-20T06:55:43;100770.77;;;13.32;70.73
51926;BME280;37952;51.938;15.480;2023-05-20T06:58:46;100760.24;;;13.33;70.98
51926;BME280;37952;51.938;15.480;2023-05-20T07:01:49;100764.08;;;13.34;71.09
51926;BME280;37952;51.938;15.480;2023-05-20T07:04:51;100766.97;;;13.36;70.85
51926;BME280;37952;51.938;15.480;2023-05-20T07:07:54;100763.66;;;13.32;70.84
51926;BME280;37952;51.938;15.480;2023-05-20T07:10:57;100762.04;;;13.33;70.89
51926;BME280;37952;51.938;15.480;2023-05-20T07:13:59;100758.15;;;13.38;71.00
51926;BME280;37952;51.938;15.480;2023-05-20T07:17:03;100757.86;;;13.44;70.86
51926;BME280;37952;51.938;15.480;2023-05-20T07:20:07;100758.52;;;13.48;70.72
51926;BME280;37952;51.938;15.480;2023-05-20T07:23:10;100755.36;;;13.51;70.72
51926;BME280;37952;51.938;15.480;2023-05-20T07:26:15;100755.55;;;13.48;70.70
51926;BME280;37952;51.938;15.480;2023-05-20T07:29:17;100755.03;;;13.50;70.89
51926;BME280;37952;51.938;15.480;2023-05-20T07:32:20;100752.06;;;13.53;70.68
51926;BME280;37952;51.938;15.480;2023-05-20T07:35:23;100756.20;;;13.55;70.56
51926;BME280;37952;51.938;15.480;2023-05-20T07:38:26;100757.30;;;13.54;70.65
51926;BME280;37952;51.938;15.480;2023-05-20T07:41:28;100756.88;;;13.49;70.50
51926;BME280;37952;51.938;15.480;2023-05-20T07:44:31;100759.37;;;13.42;70.76
51926;BME280;37952;51.938;15.480;2023-05-20T07:47:34;100750.33;;;13.42;70.86
51926;BME280;37952;51.938;15.480;2023-05-20T07:50:36;100751.89;;;13.50;70.68
51926;BME280;37952;51.938;15.480;2023-05-20T07:53:39;100752.49;;;13.55;70.51
51926;BME280;37952;51.938;15.480;2023-05-20T07:56:42;100748.43;;;13.58;70.57
51926;BME280;37952;51.938;15.480;2023-05-20T07:59:45;100749.75;;;13.63;70.70
51926;BME280;37952;51.938;15.480;2023-05-20T08:02:48;100750.19;;;13.65;70.57
51926;BME280;37952;51.938;15.480;2023-05-20T08:05:51;100755.84;;;13.65;70.40
51926;BME280;37952;51.938;15.480;2023-05-20T08:08:54;100753.58;;;13.64;70.27
51926;BME280;37952;51.938;15.480;2023-05-20T08:11:56;100755.48;;;13.62;70.37
51926;BME280;37952;51.938;15.480;2023-05-20T08:14:59;100759.19;;;13.62;70.56
51926;BME280;37952;51.938;15.480;2023-05-20T08:18:02;100755.30;;;13.65;70.46
51926;BME280;37952;51.938;15.480;2023-05-20T08:21:05;100754.58;;;13.65;70.40
51926;BME280;37952;51.938;15.480;2023-05-20T08:24:09;100749.45;;;13.62;70.15
51926;BME280;37952;51.938;15.480;2023-05-20T08:27:12;100749.36;;;13.60;70.32
51926;BME280;37952;51.938;15.480;2023-05-20T08:30:15;100749.81;;;13.58;70.49
51926;BME280;37952;51.938;15.480;2023-05-20T08:33:17;100740.61;;;13.61;70.42
51926;BME280;37952;51.938;15.480;2023-05-20T08:36:20;100736.05;;;13.67;70.44
51926;BME280;37952;51.938;15.480;2023-05-20T08:39:24;100727.14;;;13.68;70.30
51926;BME280;37952;51.938;15.480;2023-05-20T08:42:27;100723.00;;;13.72;70.32
51926;BME280;37952;51.938;15.480;2023-05-20T08:45:32;100725.68;;;13.78;70.41
51926;BME280;37952;51.938;15.480;2023-05-20T08:48:35;100732.89;;;13.79;70.21
51926;BME280;37952;51.938;15.480;2023-05-20T08:51:38;100737.02;;;13.81;70.26
51926;BME280;37952;51.938;15.480;2023-05-20T08:54:46;100742.70;;;13.84;70.09
51926;BME280;37952;51.938;15.480;2023-05-20T08:57:50;100741.41;;;13.87;70.30
51926;BME280;37952;51.938;15.480;2023-05-20T09:00:53;100740.89;;;13.94;70.22
51926;BME280;37952;51.938;15.480;2023-05-20T09:03:56;100737.18;;;13.90;70.17
51926;BME280;37952;51.938;15.480;2023-05-20T09:06:59;100735.23;;;13.87;70.27
51926;BME280;37952;51.938;15.480;2023-05-20T09:10:02;100733.15;;;13.96;70.09
51926;BME280;37952;51.938;15.480;2023-05-20T09:13:06;100731.25;;;14.01;70.04
51926;BME280;37952;51.938;15.480;2023-05-20T09:16:09;100726.63;;;13.98;70.11
51926;BME280;37952;51.938;15.480;2023-05-20T09:19:13;100729.10;;;14.04;70.00
51926;BME280;37952;51.938;15.480;2023-05-20T09:22:26;100732.39;;;14.08;70.04
51926;BME280;37952;51.938;15.480;2023-05-20T09:25:29;100729.20;;;14.15;69.85
51926;BME280;37952;51.938;15.480;2023-05-20T09:28:32;100731.81;;;14.19;69.96
51926;BME280;37952;51.938;15.480;2023-05-20T09:31:37;100721.67;;;14.28;70.06
51926;BME280;37952;51.938;15.480;2023-05-20T09:34:41;100716.48;;;14.37;69.82
51926;BME280;37952;51.938;15.480;2023-05-20T09:37:45;100717.16;;;14.44;69.92
51926;BME280;37952;51.938;15.480;2023-05-20T09:40:49;100711.80;;;14.50;69.68
51926;BME280;37952;51.938;15.480;2023-05-20T09:43:53;100717.31;;;14.59;69.56
51926;BME280;37952;51.938;15.480;2023-05-20T09:46:56;100718.70;;;14.71;69.72
51926;BME280;37952;51.938;15.480;2023-05-20T09:50:00;100721.90;;;14.76;69.32
51926;BME280;37952;51.938;15.480;2023-05-20T09:53:06;100720.26;;;14.80;69.22
51926;BME280;37952;51.938;15.480;2023-05-20T09:56:10;100717.35;;;14.87;69.12
51926;BME280;37952;51.938;15.480;2023-05-20T09:59:14;100707.69;;;14.92;69.12
51926;BME280;37952;51.938;15.480;2023-05-20T10:02:20;100702.09;;;14.99;69.09
51926;BME280;37952;51.938;15.480;2023-05-20T10:05:26;100701.90;;;15.10;68.77
51926;BME280;37952;51.938;15.480;2023-05-20T10:12:13;100710.27;;;15.18;68.55
51926;BME280;37952;51.938;15.480;2023-05-20T10:15:29;100704.25;;;15.18;68.58
51926;BME280;37952;51.938;15.480;2023-05-20T10:18:58;100704.65;;;15.17;68.60
51926;BME280;37952;51.938;15.480;2023-05-20T10:22:08;100707.01;;;15.30;68.45
51926;BME280;37952;51.938;15.480;2023-05-20T10:25:22;100700.90;;;15.33;67.97
51926;BME280;37952;51.938;15.480;2023-05-20T10:28:32;100696.71;;;15.38;67.99
51926;BME280;37952;51.938;15.480;2023-05-20T10:31:43;100687.84;;;15.46;67.97
51926;BME280;37952;51.938;15.480;2023-05-20T10:34:48;100680.98;;;15.61;68.12
51926;BME280;37952;51.938;15.480;2023-05-20T10:38:09;100677.54;;;15.81;67.89
51926;BME280;37952;51.938;15.480;2023-05-20T10:41:12;100677.13;;;16.03;67.49
51926;BME280;37952;51.938;15.480;2023-05-20T10:44:15;100680.69;;;16.18;67.10
51926;BME280;37952;51.938;15.480;2023-05-20T10:47:18;100680.40;;;16.30;67.07
51926;BME280;37952;51.938;15.480;2023-05-20T10:50:35;100681.04;;;16.44;66.72
51926;BME280;37952;51.938;15.480;2023-05-20T10:53:40;100683.01;;;16.55;66.56
51926;BME280;37952;51.938;15.480;2023-05-20T10:56:51;100678.60;;;16.64;66.31
51926;BME280;37952;51.938;15.480;2023-05-20T10:59:54;100676.12;;;16.69;66.25
51926;BME280;37952;51.938;15.480;2023-05-20T11:02:58;100670.56;;;16.72;66.02
51926;BME280;37952;51.938;15.480;2023-05-20T11:06:01;100668.58;;;16.85;65.97
51926;BME280;37952;51.938;15.480;2023-05-20T11:09:12;100661.35;;;17.06;65.87
51926;BME280;37952;51.938;15.480;2023-05-20T11:12:15;100663.44;;;17.27;65.32
51926;BME280;37952;51.938;15.480;2023-05-20T11:15:18;100661.86;;;17.36;65.09
51926;BME280;37952;51.938;15.480;2023-05-20T11:18:21;100660.85;;;17.45;64.77
51926;BME280;37952;51.938;15.480;2023-05-20T11:21:24;100663.09;;;17.58;64.54
51926;BME280;37952;51.938;15.480;2023-05-20T11:24:27;100663.06;;;17.67;64.31
51926;BME280;37952;51.938;15.480;2023-05-20T11:27:30;100666.60;;;17.79;64.09
51926;BME280;37952;51.938;15.480;2023-05-20T11:30:33;100661.11;;;17.79;63.88
51926;BME280;37952;51.938;15.480;2023-05-20T11:33:40;100652.33;;;17.89;63.96
51926;BME280;37952;51.938;15.480;2023-05-20T11:36:43;100649.75;;;18.14;63.45
51926;BME280;37952;51.938;15.480;2023-05-20T11:39:46;100649.63;;;18.15;62.84
51926;BME280;37952;51.938;15.480;2023-05-20T11:42:52;100652.14;;;18.15;62.76
51926;BME280;37952;51.938;15.480;2023-05-20T11:45:56;100648.14;;;18.16;62.69
51926;BME280;37952;51.938;15.480;2023-05-20T11:49:02;100648.59;;;18.38;62.23
51926;BME280;37952;51.938;15.480;2023-05-20T11:52:07;100648.59;;;18.54;62.06
51926;BME280;37952;51.938;15.480;2023-05-20T11:55:10;100644.34;;;18.93;62.11
51926;BME280;37952;51.938;15.480;2023-05-20T11:58:21;100643.24;;;19.20;61.49
51926;BME280;37952;51.938;15.480;2023-05-20T12:01:24;100637.94;;;19.35;61.01
51926;BME280;37952;51.938;15.480;2023-05-20T12:04:29;100634.61;;;19.55;61.24
51926;BME280;37952;51.938;15.480;2023-05-20T12:07:33;100641.64;;;19.87;60.75
51926;BME280;37952;51.938;15.480;2023-05-20T12:10:35;100641.20;;;20.07;60.14
51926;BME280;37952;51.938;15.480;2023-05-20T12:13:41;100633.64;;;20.24;59.56
51926;BME280;37952;51.938;15.480;2023-05-20T12:16:44;100632.98;;;20.42;59.47
51926;BME280;37952;51.938;15.480;2023-05-20T12:19:47;100637.98;;;20.52;58.99
51926;BME280;37952;51.938;15.480;2023-05-20T12:22:50;100628.88;;;20.58;58.40
51926;BME280;37952;51.938;15.480;2023-05-20T12:25:53;100631.14;;;20.47;58.49
51926;BME280;37952;51.938;15.480;2023-05-20T12:28:56;100626.43;;;20.53;58.39
51926;BME280;37952;51.938;15.480;2023-05-20T12:31:59;100625.22;;;20.65;58.12
51926;BME280;37952;51.938;15.480;2023-05-20T12:35:03;100622.21;;;21.05;57.72
51926;BME280;37952;51.938;15.480;2023-05-20T12:38:08;100613.11;;;21.42;57.58
51926;BME280;37952;51.938;15.480;2023-05-20T12:41:11;100606.61;;;21.75;56.79
51926;BME280;37952;51.938;15.480;2023-05-20T12:44:13;100607.00;;;22.34;55.64
51926;BME280;37952;51.938;15.480;2023-05-20T12:47:16;100607.03;;;22.60;54.17
51926;BME280;37952;51.938;15.480;2023-05-20T12:50:19;100602.09;;;22.87;53.73
51926;BME280;37952;51.938;15.480;2023-05-20T12:53:21;100591.70;;;23.51;51.10
51926;BME280;37952;51.938;15.480;2023-05-20T12:56:24;100583.05;;;23.30;51.13
51926;BME280;37952;51.938;15.480;2023-05-20T12:59:27;100579.82;;;23.10;50.86
51926;BME280;37952;51.938;15.480;2023-05-20T13:02:30;100572.35;;;22.80;50.99
51926;BME280;37952;51.938;15.480;2023-05-20T13:05:33;100567.84;;;22.58;51.57
51926;BME280;37952;51.938;15.480;2023-05-20T13:08:36;100565.11;;;22.40;51.70
51926;BME280;37952;51.938;15.480;2023-05-20T13:11:39;100567.16;;;22.30;52.15
51926;BME280;37952;51.938;15.480;2023-05-20T13:14:42;100560.84;;;22.22;52.16
51926;BME280;37952;51.938;15.480;2023-05-20T13:17:44;100556.34;;;22.27;52.02
51926;BME280;37952;51.938;15.480;2023-05-20T13:20:47;100543.23;;;22.30;52.08
51926;BME280;37952;51.938;15.480;2023-05-20T13:23:51;100544.66;;;22.45;51.61
51926;BME280;37952;51.938;15.480;2023-05-20T13:26:54;100539.21;;;22.49;50.69
51926;BME280;37952;51.938;15.480;2023-05-20T13:29:57;100527.45;;;22.56;50.83
51926;BME280;37952;51.938;15.480;2023-05-20T13:33:00;100527.02;;;22.73;50.63
51926;BME280;37952;51.938;15.480;2023-05-20T13:36:03;100526.58;;;22.87;50.66
51926;BME280;37952;51.938;15.480;2023-05-20T13:39:05;100529.22;;;22.85;50.10
51926;BME280;37952;51.938;15.480;2023-05-20T13:42:08;100528.27;;;22.75;50.11
51926;BME280;37952;51.938;15.480;2023-05-20T13:45:11;100530.13;;;22.73;50.64
51926;BME280;37952;51.938;15.480;2023-05-20T13:48:13;100526.73;;;22.72;50.42
51926;BME280;37952;51.938;15.480;2023-05-20T13:51:16;100536.37;;;22.68;50.02
51926;BME280;37952;51.938;15.480;2023-05-20T13:54:19;100536.15;;;22.59;50.10
51926;BME280;37952;51.938;15.480;2023-05-20T13:57:23;100534.49;;;22.39;50.11
51926;BME280;37952;51.938;15.480;2023-05-20T14:00:25;100533.90;;;22.40;50.59
51926;BME280;37952;51.938;15.480;2023-05-20T14:03:28;100534.48;;;22.55;50.26
51926;BME280;37952;51.938;15.480;2023-05-20T14:06:31;100530.08;;;22.82;50.39
51926;BME280;37952;51.938;15.480;2023-05-20T14:09:34;100531.00;;;23.05;49.92
51926;BME280;37952;51.938;15.480;2023-05-20T14:12:37;100523.44;;;23.04;49.52
51926;BME280;37952;51.938;15.480;2023-05-20T14:15:41;100515.39;;;23.10;49.58
51926;BME280;37952;51.938;15.480;2023-05-20T14:18:44;100514.23;;;23.22;49.00
51926;BME280;37952;51.938;15.480;2023-05-20T14:21:47;100512.45;;;23.30;48.86
51926;BME280;37952;51.938;15.480;2023-05-20T14:24:50;100514.60;;;23.30;48.37
51926;BME280;37952;51.938;15.480;2023-05-20T14:27:52;100511.85;;;23.44;49.01
51926;BME280;37952;51.938;15.480;2023-05-20T14:30:55;100511.69;;;23.70;48.25
51926;BME280;37952;51.938;15.480;2023-05-20T14:33:58;100508.73;;;23.86;47.80
51926;BME280;37952;51.938;15.480;2023-05-20T14:37:01;100497.98;;;23.81;47.77
51926;BME280;37952;51.938;15.480;2023-05-20T14:40:09;100497.42;;;23.75;47.95
51926;BME280;37952;51.938;15.480;2023-05-20T14:43:12;100493.87;;;23.80;48.07
51926;BME280;37952;51.938;15.480;2023-05-20T14:46:16;100494.18;;;23.93;47.88
51926;BME280;37952;51.938;15.480;2023-05-20T14:49:19;100489.49;;;24.03;47.76
51926;BME280;37952;51.938;15.480;2023-05-20T14:52:22;100484.07;;;24.10;47.31
51926;BME280;37952;51.938;15.480;2023-05-20T14:55:24;100484.52;;;24.33;47.52
51926;BME280;37952;51.938;15.480;2023-05-20T14:58:27;100481.75;;;24.66;47.12
51926;BME280;37952;51.938;15.480;2023-05-20T15:01:30;100477.30;;;24.80;46.86
51926;BME280;37952;51.938;15.480;2023-05-20T15:04:33;100481.59;;;25.12;46.55
51926;BME280;37952;51.938;15.480;2023-05-20T15:07:37;100473.09;;;25.30;46.13
51926;BME280;37952;51.938;15.480;2023-05-20T15:10:40;100469.02;;;25.52;46.24
51926;BME280;37952;51.938;15.480;2023-05-20T15:13:43;100469.80;;;25.84;45.77
51926;BME280;37952;51.938;15.480;2023-05-20T15:16:47;100472.19;;;26.17;44.28
51926;BME280;37952;51.938;15.480;2023-05-20T15:19:51;100475.35;;;26.15;43.61
51926;BME280;37952;51.938;15.480;2023-05-20T15:22:53;100466.41;;;26.23;43.50
51926;BME280;37952;51.938;15.480;2023-05-20T15:25:56;100463.43;;;26.51;43.08
51926;BME280;37952;51.938;15.480;2023-05-20T15:29:02;100454.53;;;26.78;42.29
51926;BME280;37952;51.938;15.480;2023-05-20T15:32:05;100447.63;;;27.18;41.97
51926;BME280;37952;51.938;15.480;2023-05-20T15:35:08;100440.81;;;27.58;41.68
51926;BME280;37952;51.938;15.480;2023-05-20T15:38:15;100446.87;;;27.56;41.15
51926;BME280;37952;51.938;15.480;2023-05-20T15:41:19;100447.39;;;27.65;41.19
51926;BME280;37952;51.938;15.480;2023-05-20T15:44:23;100450.00;;;27.87;40.88
51926;BME280;37952;51.938;15.480;2023-05-20T15:47:26;100443.24;;;28.12;40.65
51926;BME280;37952;51.938;15.480;2023-05-20T15:50:29;100434.16;;;28.11;40.20